Ampton, United Kingdom
Current Conditions -  °F | °C
As of 6:33 AM on Tuesday 21 Oct 2014 (Local Time) from EGUL Reporting Station
Overcast Overcast  
Wind Chill: 55°   Ceiling: 1900
Heat Index: 55°   Visibility: 6mi
Dew Point: 55°   Wind: 21mph
Humidity: 100%   Direction: 210°SSW
Pressure: 29.48"   Gusts: 24mph
Location:  52.33°N, 0.85°E
Report Text: EGUL 210533Z AUTO 21018G21KT 9999 BKN019 OVC025 13/13 A2948 RMK AO2 CIG 019V023
Loading
Personal Weather Stations






























Interactive Weather Map New forecast layout! Learn more

10-Day Weather Forecast

Advertisements
Track Severe Weather on mobile